Mariner A — 9HVA7 — position and weather

sailwx.info

Track history (hours):
 
Tides and Currents Weather Stations Pressure Air Temp Water Temp Dewpoint Dewpoint Depression Visibility Wind Speed Wind Dir Waves Ship Positions

Mariner A

Last reported at 2014-Jul-26 07:28 UTC. Time now 2014-Jul-31 21:41 UTC.
Position N 39°56' E 025°57'.

Length 176 m; draft 7.8 m.

Type: Tanker. MMSI: 215817000.

Date/timePositionNaut miles runAvg speedWind from/ knotsBaromVisibWave heightAir tempDewpointWater temp
2014-Jul-26 07:28N 39°56' E 025°57'11 1.2
2014-Jul-25 22:18N 39°46' E 025°52'911.9
2014-Jul-25 21:33N 39°39' E 025°44'12911.5
2014-Jul-25 10:21N 37°47' E 024°23'35 9.1
2014-Jul-25 06:31N 37°45' E 023°39'1110.9
2014-Jul-25 05:33N 37°50' E 023°28'8 0.2
2014-Jul-23 15:27N 37°52' E 023°18'1011.5
2014-Jul-23 14:33N 37°50' E 023°31'1010.2
2014-Jul-23 13:33N 37°45' E 023°43'1111.5
2014-Jul-23 12:33N 37°37' E 023°53'22 9.6
2014-Jul-23 10:15N 37°46' E 024°19'  
Track history (hours):
 
Tides and Currents Weather Stations Pressure Air Temp Water Temp Dewpoint Dewpoint Depression Visibility Wind Speed Wind Dir Waves Ship Positions

Mariner A

Last reported at 2014-Jul-26 07:28 UTC. Time now 2014-Jul-31 21:41 UTC.
Position N 39°56' E 025°57'.

Length 176 m; draft 7.8 m.

Type: Tanker. MMSI: 215817000.

Date/timePositionNaut miles runAvg speedWind from/ knotsBaromVisibWave heightAir tempDewpointWater temp
2014-Jul-26 07:28N 39°56' E 025°57'11 1.2
2014-Jul-25 22:18N 39°46' E 025°52'911.9
2014-Jul-25 21:33N 39°39' E 025°44'12911.5
2014-Jul-25 10:21N 37°47' E 024°23'35 9.1
2014-Jul-25 06:31N 37°45' E 023°39'1110.9
2014-Jul-25 05:33N 37°50' E 023°28'8 0.2
2014-Jul-23 15:27N 37°52' E 023°18'1011.5
2014-Jul-23 14:33N 37°50' E 023°31'1010.2
2014-Jul-23 13:33N 37°45' E 023°43'1111.5
2014-Jul-23 12:33N 37°37' E 023°53'22 9.6
2014-Jul-23 10:15N 37°46' E 024°19'  

Dump ship's entire track history